createdAt,value
2022-10-17T00:01:27.656Z,15.52
2022-10-17T00:03:57.886Z,15.51
2022-10-17T00:06:26.375Z,15.50
2022-10-17T00:08:55.063Z,15.50
2022-10-17T00:11:25.433Z,15.47
2022-10-17T00:13:56.859Z,15.50
2022-10-17T00:16:26.467Z,15.08
2022-10-17T00:18:55.263Z,15.46
2022-10-17T00:21:25.975Z,15.35
2022-10-17T00:23:54.594Z,15.51
2022-10-17T00:26:23.098Z,15.38
2022-10-17T00:28:53.138Z,15.27
2022-10-17T00:31:23.613Z,15.44
2022-10-17T00:33:53.050Z,15.46
2022-10-17T00:36:22.889Z,15.43
2022-10-17T00:38:54.623Z,15.47
2022-10-17T00:41:25.865Z,15.43
2022-10-17T00:43:57.559Z,15.52
2022-10-17T00:46:31.175Z,15.24
2022-10-17T00:49:00.605Z,15.36
2022-10-17T00:51:35.317Z,15.43
2022-10-17T00:54:06.327Z,15.41
2022-10-17T00:56:35.983Z,15.31
2022-10-17T01:01:38.794Z,15.28
2022-10-17T01:04:07.318Z,15.52
2022-10-17T01:06:35.724Z,15.38
2022-10-17T01:09:05.734Z,15.48
2022-10-17T01:11:41.075Z,15.48
2022-10-17T01:14:19.547Z,15.49
2022-10-17T01:16:55.859Z,15.52
2022-10-17T01:19:44.403Z,15.34
2022-10-17T01:22:23.855Z,15.50
2022-10-17T01:25:13.392Z,15.56
2022-10-17T01:28:10.997Z,15.61
2022-10-17T01:31:00.951Z,15.54
2022-10-17T01:33:38.459Z,15.48
2022-10-17T01:36:12.582Z,15.48
2022-10-17T01:38:48.980Z,15.55
2022-10-17T01:41:26.872Z,15.61
2022-10-17T01:44:00.857Z,15.34
2022-10-17T01:46:33.313Z,15.48
2022-10-17T01:49:04.745Z,15.53
2022-10-17T01:51:39.630Z,15.60
2022-10-17T01:54:14.774Z,15.51
2022-10-17T01:56:46.467Z,15.54
2022-10-17T01:59:19.472Z,15.56
2022-10-17T02:01:54.338Z,15.51
2022-10-17T02:04:23.074Z,15.40
2022-10-17T02:06:51.500Z,15.47
2022-10-17T02:09:22.818Z,15.28
2022-10-17T02:12:10.680Z,15.48
2022-10-17T02:14:50.920Z,15.46
2022-10-17T02:17:32.899Z,15.45
2022-10-17T02:20:11.775Z,15.41
2022-10-17T02:22:49.411Z,15.33
2022-10-17T02:25:28.314Z,15.37
2022-10-17T02:28:02.590Z,15.34
2022-10-17T02:30:35.380Z,14.72
2022-10-17T02:33:08.552Z,15.23
2022-10-17T02:35:41.446Z,15.24
2022-10-17T02:38:12.120Z,15.34
2022-10-17T02:40:42.288Z,15.33
2022-10-17T02:43:10.794Z,15.06
2022-10-17T02:45:40.395Z,15.37
2022-10-17T02:48:16.240Z,15.30
2022-10-17T02:50:53.995Z,15.16
2022-10-17T02:53:29.575Z,15.26
2022-10-17T02:56:03.174Z,15.27
2022-10-17T02:58:34.267Z,15.25
2022-10-17T03:01:02.765Z,15.25
2022-10-17T03:03:34.243Z,15.22
2022-10-17T03:06:02.764Z,15.11
2022-10-17T03:08:31.533Z,15.13
2022-10-17T03:11:00.276Z,15.09
2022-10-17T03:13:28.718Z,14.98
2022-10-17T03:15:58.228Z,14.85
2022-10-17T03:18:26.747Z,14.86
2022-10-17T03:20:56.587Z,14.61
2022-10-17T03:23:25.276Z,14.84
2022-10-17T03:25:53.782Z,14.75
2022-10-17T03:28:22.112Z,14.64
2022-10-17T03:30:50.499Z,14.58
2022-10-17T03:33:18.893Z,14.00
2022-10-17T03:35:47.271Z,14.57
2022-10-17T03:38:17.335Z,14.48
2022-10-17T03:40:45.707Z,14.46
2022-10-17T03:43:14.103Z,14.41
2022-10-17T03:45:42.527Z,14.36
2022-10-17T03:48:10.861Z,13.97
2022-10-17T03:50:39.315Z,14.29
2022-10-17T03:53:07.660Z,14.20
2022-10-17T03:55:37.448Z,14.16
2022-10-17T03:58:05.798Z,14.11
2022-10-17T04:00:34.408Z,14.07
2022-10-17T04:03:02.875Z,14.03
2022-10-17T04:05:31.199Z,14.00
2022-10-17T04:08:02.456Z,13.98
2022-10-17T04:10:33.091Z,13.91
2022-10-17T04:13:02.959Z,13.81
2022-10-17T04:15:31.402Z,13.86
2022-10-17T04:17:59.850Z,13.80
2022-10-17T04:20:28.403Z,13.50
2022-10-17T04:22:56.782Z,13.76
2022-10-17T04:25:25.164Z,13.72
2022-10-17T04:27:53.817Z,13.67
2022-10-17T04:30:23.571Z,13.63
2022-10-17T04:32:51.960Z,13.63
2022-10-17T04:35:20.352Z,13.62
2022-10-17T04:37:49.099Z,13.58
2022-10-17T04:40:17.594Z,13.60
2022-10-17T04:42:46.001Z,13.58
2022-10-17T04:45:14.780Z,13.38
2022-10-17T04:47:44.551Z,13.50
2022-10-17T04:50:12.963Z,13.34
2022-10-17T04:52:41.267Z,13.46
2022-10-17T04:55:10.084Z,13.42
2022-10-17T04:57:38.495Z,13.35
2022-10-17T05:02:44.407Z,13.31
2022-10-17T05:05:12.723Z,13.31
2022-10-17T05:07:42.058Z,13.30
2022-10-17T05:10:11.565Z,13.21
2022-10-17T05:12:40.248Z,13.30
2022-10-17T05:15:10.075Z,13.34
2022-10-17T05:17:38.396Z,13.12
2022-10-17T05:20:09.932Z,13.24
2022-10-17T05:22:41.251Z,13.15
2022-10-17T05:25:10.755Z,13.19
2022-10-17T05:27:39.303Z,13.19
2022-10-17T05:30:09.435Z,13.32
2022-10-17T05:32:38.101Z,13.35
2022-10-17T05:35:08.910Z,13.40
2022-10-17T05:37:37.200Z,13.21
2022-10-17T05:40:06.007Z,13.40
2022-10-17T05:42:34.468Z,13.40
2022-10-17T05:45:03.132Z,13.40
2022-10-17T05:47:32.058Z,13.38
2022-10-17T05:50:00.695Z,13.41
2022-10-17T05:52:30.723Z,13.38
2022-10-17T05:54:59.356Z,13.41
2022-10-17T05:57:27.932Z,13.38
2022-10-17T05:59:56.306Z,13.42
2022-10-17T06:02:24.959Z,13.46
2022-10-17T06:04:53.500Z,13.56
2022-10-17T06:07:22.214Z,13.59
2022-10-17T06:09:52.408Z,13.60
2022-10-17T06:12:20.708Z,13.66
2022-10-17T06:14:49.046Z,13.71
2022-10-17T06:17:17.574Z,13.73
2022-10-17T06:19:46.036Z,13.66
2022-10-17T06:22:14.749Z,13.88
2022-10-17T06:24:43.715Z,13.91
2022-10-17T06:27:13.787Z,13.93
2022-10-17T06:29:42.298Z,13.66
2022-10-17T06:32:14.913Z,13.99
2022-10-17T06:34:43.733Z,14.00
2022-10-17T06:37:12.180Z,13.81
2022-10-17T06:39:40.581Z,13.99
2022-10-17T06:42:08.893Z,14.03
2022-10-17T06:44:40.161Z,14.01
2022-10-17T06:47:08.466Z,14.03
2022-10-17T06:49:36.742Z,14.10
2022-10-17T06:52:05.190Z,14.14
2022-10-17T06:54:33.988Z,14.33
2022-10-17T06:57:02.332Z,14.25
2022-10-17T06:59:30.711Z,14.26
2022-10-17T07:02:01.847Z,14.35
2022-10-17T07:04:30.340Z,14.29
2022-10-17T07:09:33.443Z,14.36
2022-10-17T07:12:02.070Z,14.38
2022-10-17T07:14:32.247Z,14.38
2022-10-17T07:17:02.407Z,14.39
2022-10-17T07:19:30.886Z,14.25
2022-10-17T07:21:59.311Z,14.37
2022-10-17T07:24:27.835Z,13.84
2022-10-17T07:26:56.219Z,14.51
2022-10-17T07:29:24.523Z,14.50
2022-10-17T07:31:53.275Z,14.55
2022-10-17T07:34:27.536Z,14.67
2022-10-17T07:36:55.975Z,14.74
2022-10-17T07:39:24.496Z,14.83
2022-10-17T07:41:53.076Z,14.88
2022-10-17T07:44:21.825Z,14.92
2022-10-17T07:46:50.176Z,14.99
2022-10-17T07:49:18.914Z,15.01
2022-10-17T07:51:50.143Z,15.13
2022-10-17T07:54:18.733Z,15.17
2022-10-17T07:56:50.757Z,15.23
2022-10-17T07:59:19.512Z,14.99
2022-10-17T08:01:48.158Z,15.32
2022-10-17T08:04:17.186Z,15.21
2022-10-17T08:06:45.875Z,14.75
2022-10-17T08:09:15.599Z,15.42
2022-10-17T08:11:44.880Z,15.45
2022-10-17T08:14:14.471Z,15.49
2022-10-17T08:16:42.787Z,15.54
2022-10-17T08:19:11.681Z,15.24
2022-10-17T08:21:41.628Z,14.70
2022-10-17T08:24:10.472Z,15.71
2022-10-17T08:26:43.380Z,15.77
2022-10-17T08:29:15.681Z,15.87
2022-10-17T08:31:47.767Z,15.93
2022-10-17T08:34:17.400Z,16.07
2022-10-17T08:36:45.808Z,15.88
2022-10-17T08:39:14.063Z,16.11
2022-10-17T08:41:54.780Z,16.36
2022-10-17T08:44:38.637Z,16.44
2022-10-17T08:47:12.150Z,16.43
2022-10-17T08:49:47.954Z,16.58
2022-10-17T08:52:23.905Z,16.68
2022-10-17T08:54:52.758Z,16.79
2022-10-17T08:57:22.766Z,16.92
2022-10-17T08:59:53.315Z,16.69
2022-10-17T09:02:40.382Z,16.98
2022-10-17T09:05:36.048Z,17.07
2022-10-17T09:08:15.973Z,17.28
2022-10-17T09:10:53.955Z,17.30
2022-10-17T09:13:49.986Z,17.42
2022-10-17T09:16:39.531Z,17.51
2022-10-17T09:19:14.245Z,17.55
2022-10-17T09:21:47.503Z,17.70
2022-10-17T09:24:22.612Z,17.70
2022-10-17T09:26:53.004Z,17.82
2022-10-17T09:29:25.064Z,17.84
2022-10-17T09:32:03.027Z,17.83
2022-10-17T09:34:33.902Z,17.86
2022-10-17T09:37:03.705Z,17.80
2022-10-17T09:39:33.287Z,17.93
2022-10-17T09:42:02.984Z,17.95
2022-10-17T09:44:35.360Z,17.99
2022-10-17T09:47:30.207Z,18.09
2022-10-17T09:49:58.785Z,17.66
2022-10-17T09:52:31.030Z,18.09
2022-10-17T09:55:05.582Z,18.16
2022-10-17T09:57:55.441Z,18.21
2022-10-17T10:00:27.040Z,18.26
2022-10-17T10:03:11.040Z,18.36
2022-10-17T10:05:39.705Z,18.35
2022-10-17T10:08:16.745Z,18.43
2022-10-17T10:10:46.064Z,18.38
2022-10-17T10:13:28.066Z,18.60
2022-10-17T10:16:15.811Z,18.59
2022-10-17T10:18:46.448Z,18.75
2022-10-17T10:21:20.462Z,18.85
2022-10-17T10:24:07.923Z,18.98
2022-10-17T10:26:40.264Z,18.45
2022-10-17T10:29:23.314Z,19.22
2022-10-17T10:31:55.143Z,19.27
2022-10-17T10:34:26.047Z,19.35
2022-10-17T10:36:59.312Z,19.43
2022-10-17T10:39:44.191Z,19.52
2022-10-17T10:42:23.635Z,19.64
2022-10-17T10:44:53.447Z,19.66
2022-10-17T10:47:27.186Z,19.80
2022-10-17T10:50:17.148Z,19.97
2022-10-17T10:52:49.399Z,20.05
2022-10-17T10:55:25.436Z,19.99
2022-10-17T10:57:58.383Z,20.20
2022-10-17T11:00:29.874Z,20.27
2022-10-17T11:03:12.734Z,20.36
2022-10-17T11:05:46.323Z,20.28
2022-10-17T11:08:25.009Z,20.27
2022-10-17T11:11:13.868Z,20.23
2022-10-17T11:13:49.589Z,20.15
2022-10-17T11:16:30.830Z,20.09
2022-10-17T11:19:08.582Z,20.07
2022-10-17T11:21:45.169Z,20.03
2022-10-17T11:24:20.611Z,20.04
2022-10-17T11:26:56.991Z,19.99
2022-10-17T11:29:30.759Z,20.20
2022-10-17T11:32:03.435Z,20.26
2022-10-17T11:34:37.743Z,20.34
2022-10-17T11:37:14.035Z,20.44
2022-10-17T11:39:49.350Z,20.58
2022-10-17T11:42:22.975Z,20.58
2022-10-17T11:44:54.870Z,20.55
2022-10-17T11:47:34.565Z,20.52
2022-10-17T11:53:05.266Z,20.49
2022-10-17T11:55:34.575Z,20.38
2022-10-17T11:58:13.755Z,20.38
2022-10-17T12:00:54.553Z,20.26
2022-10-17T12:03:44.314Z,20.51
2022-10-17T12:06:19.740Z,20.31
2022-10-17T12:08:57.170Z,20.60
2022-10-17T12:11:41.005Z,20.63
2022-10-17T12:14:36.427Z,20.61
2022-10-17T12:17:06.207Z,20.65
2022-10-17T12:19:36.553Z,20.75
2022-10-17T12:22:19.114Z,20.66
2022-10-17T12:24:56.279Z,20.70
2022-10-17T12:27:47.631Z,20.49
2022-10-17T12:30:25.152Z,20.76
2022-10-17T12:33:07.327Z,20.74
2022-10-17T12:35:38.854Z,20.74
2022-10-17T12:38:29.490Z,20.81
2022-10-17T12:41:03.227Z,20.80
2022-10-17T12:43:48.835Z,20.80
2022-10-17T12:46:47.083Z,20.80
2022-10-17T12:49:24.254Z,20.80
2022-10-17T12:52:29.835Z,20.80
2022-10-17T12:55:18.657Z,20.81
2022-10-17T12:57:55.669Z,20.83
2022-10-17T13:00:29.776Z,20.90
2022-10-17T13:03:14.299Z,21.03
2022-10-17T13:05:47.310Z,20.91
2022-10-17T13:08:20.995Z,21.08
2022-10-17T13:10:52.755Z,21.00
2022-10-17T13:13:23.722Z,21.10
2022-10-17T13:15:54.042Z,21.15
2022-10-17T13:18:24.957Z,21.23
2022-10-17T13:21:02.047Z,21.44
2022-10-17T13:23:35.974Z,21.38
2022-10-17T13:26:09.440Z,21.33
2022-10-17T13:28:39.516Z,21.22
2022-10-17T13:31:08.732Z,21.31
2022-10-17T13:33:42.558Z,21.37
2022-10-17T13:36:19.253Z,21.41
2022-10-17T13:38:48.715Z,21.47
2022-10-17T13:41:35.410Z,21.30
2022-10-17T13:44:12.167Z,21.38
2022-10-17T13:46:43.833Z,21.32
2022-10-17T13:49:18.932Z,21.49
2022-10-17T13:51:49.647Z,21.21
2022-10-17T13:54:40.452Z,21.32
2022-10-17T13:57:20.216Z,21.28
2022-10-17T13:59:50.810Z,21.24
2022-10-17T14:02:21.560Z,21.24
2022-10-17T14:05:19.709Z,21.30
2022-10-17T14:10:42.512Z,21.11
2022-10-17T14:13:22.407Z,20.96
2022-10-17T14:15:51.550Z,21.11
2022-10-17T14:18:22.383Z,20.66
2022-10-17T14:23:42.829Z,20.80
2022-10-17T14:26:15.431Z,20.79
2022-10-17T14:28:47.597Z,20.70
2022-10-17T14:31:27.040Z,20.64
2022-10-17T14:33:56.147Z,20.65
2022-10-17T14:36:34.516Z,19.65
2022-10-17T14:39:04.530Z,20.44
2022-10-17T14:41:44.156Z,20.51
2022-10-17T14:44:22.150Z,20.36
2022-10-17T14:46:54.257Z,20.31
2022-10-17T14:49:28.955Z,20.24
2022-10-17T14:52:25.685Z,20.20
2022-10-17T14:54:54.131Z,20.08
2022-10-17T14:57:27.256Z,20.04
2022-10-17T14:59:57.900Z,19.89
2022-10-17T15:02:27.415Z,19.91
2022-10-17T15:04:56.324Z,19.71
2022-10-17T15:07:25.122Z,19.86
2022-10-17T15:09:54.799Z,19.77
2022-10-17T15:12:25.282Z,19.72
2022-10-17T15:14:54.783Z,19.53
2022-10-17T15:17:27.980Z,19.63
2022-10-17T15:19:57.063Z,19.21
2022-10-17T15:22:25.855Z,19.21
2022-10-17T15:24:54.248Z,19.47
2022-10-17T15:27:24.180Z,19.41
2022-10-17T15:29:53.213Z,19.36
2022-10-17T15:32:21.740Z,19.31
2022-10-17T15:34:51.504Z,19.28
2022-10-17T15:37:22.618Z,18.80
2022-10-17T15:39:53.657Z,19.19
2022-10-17T15:42:23.575Z,19.07
2022-10-17T15:44:51.949Z,19.08
2022-10-17T15:47:26.879Z,19.04
2022-10-17T15:49:57.078Z,18.97
2022-10-17T15:52:25.690Z,18.90
2022-10-17T15:54:55.213Z,18.82
2022-10-17T15:57:27.387Z,18.82
2022-10-17T15:59:57.311Z,18.76
2022-10-17T16:02:25.848Z,18.71
2022-10-17T16:04:54.416Z,18.39
2022-10-17T16:07:24.147Z,18.60
2022-10-17T16:09:52.704Z,18.52
2022-10-17T16:12:27.018Z,18.47
2022-10-17T16:14:55.723Z,18.42
2022-10-17T16:17:24.291Z,18.39
2022-10-17T16:19:52.619Z,18.31
2022-10-17T16:22:26.634Z,18.26
2022-10-17T16:24:59.493Z,17.70
2022-10-17T16:27:27.931Z,18.12
2022-10-17T16:29:56.284Z,17.99
2022-10-17T16:32:27.149Z,18.02
2022-10-17T16:34:55.900Z,17.93
2022-10-17T16:37:25.675Z,17.86
2022-10-17T16:39:56.801Z,17.78
2022-10-17T16:42:26.673Z,17.72
2022-10-17T16:44:55.172Z,17.67
2022-10-17T16:47:23.964Z,17.62
2022-10-17T16:49:52.888Z,17.58
2022-10-17T16:52:21.580Z,17.50
2022-10-17T16:54:51.503Z,17.45
2022-10-17T16:57:19.937Z,17.39
2022-10-17T16:59:48.497Z,17.07
2022-10-17T17:02:21.191Z,17.26
2022-10-17T17:04:49.998Z,17.07
2022-10-17T17:07:19.795Z,17.16
2022-10-17T17:09:48.337Z,16.19
2022-10-17T17:12:18.094Z,17.07
2022-10-17T17:14:46.655Z,17.03
2022-10-17T17:17:24.575Z,16.99
2022-10-17T17:20:03.815Z,16.80
2022-10-17T17:22:32.265Z,16.88
2022-10-17T17:25:00.898Z,16.83
2022-10-17T17:27:32.033Z,16.81
2022-10-17T17:30:01.025Z,16.40
2022-10-17T17:32:29.305Z,16.49
2022-10-17T17:34:59.617Z,16.67
2022-10-17T17:37:28.422Z,16.63
2022-10-17T17:39:57.045Z,15.88
2022-10-17T17:42:25.768Z,16.53
2022-10-17T17:44:55.611Z,16.50
2022-10-17T17:47:23.960Z,16.47
2022-10-17T17:49:52.507Z,16.42
2022-10-17T17:52:20.980Z,16.42
2022-10-17T17:54:49.925Z,16.33
2022-10-17T17:57:18.672Z,16.28
2022-10-17T17:59:48.702Z,16.39
2022-10-17T18:02:18.829Z,16.01
2022-10-17T18:04:47.345Z,16.34
2022-10-17T18:07:15.855Z,16.18
2022-10-17T18:09:44.699Z,16.31
2022-10-17T18:12:14.982Z,16.20
2022-10-17T18:14:43.460Z,16.28
2022-10-17T18:17:11.816Z,15.83
2022-10-17T18:19:41.643Z,16.15
2022-10-17T18:22:10.051Z,15.85
2022-10-17T18:24:38.565Z,16.20
2022-10-17T18:27:07.080Z,16.18
2022-10-17T18:29:35.641Z,16.02
2022-10-17T18:32:04.373Z,16.12
2022-10-17T18:34:32.826Z,16.05
2022-10-17T18:37:02.802Z,16.03
2022-10-17T18:39:31.419Z,15.99
2022-10-17T18:41:59.841Z,15.88
2022-10-17T18:44:28.775Z,15.92
2022-10-17T18:47:03.046Z,15.93
2022-10-17T18:49:32.939Z,15.68
2022-10-17T18:52:03.230Z,15.91
2022-10-17T18:54:33.597Z,15.88
2022-10-17T18:57:02.355Z,15.93
2022-10-17T18:59:31.435Z,15.93
2022-10-17T19:01:59.958Z,15.94
2022-10-17T19:04:28.613Z,15.93
2022-10-17T19:06:57.034Z,15.80
2022-10-17T19:09:29.974Z,15.07
2022-10-17T19:11:58.568Z,15.89
2022-10-17T19:14:28.824Z,15.88
2022-10-17T19:17:00.176Z,15.87
2022-10-17T19:19:30.221Z,15.85
2022-10-17T19:22:01.033Z,15.84
2022-10-17T19:24:32.622Z,15.77
2022-10-17T19:27:03.747Z,15.81
2022-10-17T19:29:34.658Z,15.69
2022-10-17T19:32:10.188Z,15.78
2022-10-17T19:34:44.142Z,15.75
2022-10-17T19:37:14.085Z,15.75
2022-10-17T19:39:45.708Z,15.69
2022-10-17T19:42:15.651Z,15.72
2022-10-17T19:44:45.523Z,15.72
2022-10-17T19:47:15.278Z,15.71
2022-10-17T19:49:49.732Z,15.24
2022-10-17T19:52:19.982Z,15.62
2022-10-17T19:54:51.891Z,15.34
2022-10-17T19:57:22.390Z,15.42
2022-10-17T19:59:53.738Z,15.40
2022-10-17T20:02:25.845Z,15.53
2022-10-17T20:05:13.971Z,15.61
2022-10-17T20:07:46.527Z,15.60
2022-10-17T20:10:19.089Z,15.59
2022-10-17T20:12:49.658Z,15.62
2022-10-17T20:15:20.842Z,15.61
2022-10-17T20:17:50.812Z,15.62
2022-10-17T20:20:20.966Z,15.63
2022-10-17T20:22:50.734Z,15.63
2022-10-17T20:25:22.309Z,15.62
2022-10-17T20:27:52.079Z,15.61
2022-10-17T20:30:24.755Z,15.61
2022-10-17T20:32:55.628Z,15.59
2022-10-17T20:35:24.498Z,15.60
2022-10-17T20:37:53.291Z,15.58
2022-10-17T20:40:34.592Z,15.41
2022-10-17T20:43:04.100Z,15.56
2022-10-17T20:45:45.090Z,15.29
2022-10-17T20:48:20.271Z,15.46
2022-10-17T20:50:49.023Z,15.55
2022-10-17T20:53:35.912Z,15.53
2022-10-17T20:56:08.546Z,15.37
2022-10-17T20:58:37.456Z,15.32
2022-10-17T21:01:10.039Z,15.47
2022-10-17T21:03:42.401Z,15.46
2022-10-17T21:06:14.032Z,15.20
2022-10-17T21:08:42.455Z,15.45
2022-10-17T21:11:14.962Z,15.45
2022-10-17T21:13:43.630Z,15.43
2022-10-17T21:16:13.287Z,15.43
2022-10-17T21:18:42.540Z,15.41
2022-10-17T21:21:15.815Z,15.20
2022-10-17T21:23:46.607Z,15.37
2022-10-17T21:26:17.567Z,14.26
2022-10-17T21:28:48.761Z,15.38
2022-10-17T21:31:19.215Z,15.38
2022-10-17T21:33:49.511Z,15.38
2022-10-17T21:36:19.149Z,15.40
2022-10-17T21:38:49.127Z,15.41
2022-10-17T21:41:20.888Z,15.44
2022-10-17T21:43:53.387Z,15.03
2022-10-17T21:46:22.313Z,15.51
2022-10-17T21:48:51.994Z,15.32
2022-10-17T21:51:23.095Z,15.57
2022-10-17T21:53:52.298Z,15.28
2022-10-17T21:56:24.870Z,15.63
2022-10-17T21:58:53.345Z,15.60
2022-10-17T22:01:25.249Z,15.31
2022-10-17T22:03:55.697Z,15.56
2022-10-17T22:06:39.227Z,15.50
2022-10-17T22:09:11.410Z,14.87
2022-10-17T22:11:41.481Z,15.51
2022-10-17T22:14:13.725Z,15.48
2022-10-17T22:16:44.411Z,15.45
2022-10-17T22:19:14.064Z,15.45
2022-10-17T22:21:42.738Z,15.44
2022-10-17T22:24:15.263Z,15.32
2022-10-17T22:26:45.779Z,15.44
2022-10-17T22:29:14.795Z,15.43
2022-10-17T22:31:43.363Z,15.40
2022-10-17T22:34:13.589Z,15.31
2022-10-17T22:36:42.348Z,15.23
2022-10-17T22:39:11.596Z,15.18
2022-10-17T22:41:40.290Z,14.71
2022-10-17T22:44:10.278Z,14.74
2022-10-17T22:46:38.594Z,14.49
2022-10-17T22:49:06.976Z,14.91
2022-10-17T22:51:35.595Z,14.92
2022-10-17T22:54:03.947Z,14.90
2022-10-17T22:56:32.539Z,14.77
2022-10-17T22:59:00.891Z,14.60
2022-10-17T23:01:30.902Z,14.35
2022-10-17T23:03:59.799Z,14.51
2022-10-17T23:06:28.223Z,14.51
2022-10-17T23:08:56.758Z,14.51
2022-10-17T23:11:26.472Z,14.53
2022-10-17T23:13:54.836Z,14.64
2022-10-17T23:16:23.735Z,14.71
2022-10-17T23:18:53.511Z,14.55
2022-10-17T23:21:21.826Z,14.71
2022-10-17T23:23:50.159Z,14.89
2022-10-17T23:26:21.541Z,14.68
2022-10-17T23:28:51.146Z,14.93
2022-10-17T23:31:21.195Z,14.94
2022-10-17T23:33:51.037Z,14.95
2022-10-17T23:36:21.877Z,14.78
2022-10-17T23:38:52.651Z,14.97
2022-10-17T23:41:23.575Z,14.90
2022-10-17T23:43:52.406Z,14.29
2022-10-17T23:46:20.951Z,14.90
2022-10-17T23:48:49.248Z,14.91
2022-10-17T23:51:17.782Z,14.05
2022-10-17T23:53:47.892Z,14.88
2022-10-17T23:56:16.477Z,14.85
2022-10-17T23:58:44.821Z,14.84
